Terminal Aerodrome Forecast
Issued by NWS Wilmington, NC

Home | Current Version | Previous Version | Text Only | Print | Product List | Glossary On
Versions: 1 2 3 4 5 6 7 8 9 10 11 12 13
000
FTUS42 KILM 201700 CCA
TAFMYR
TAF COR
KMYR 201747Z 2018/2118 03012G18KT P6SM VCSH SCT025 BKN070
      TEMPO 2018/2022 5SM -RA BKN025
     FM202200 02009KT 5SM RA SCT010 OVC025
     FM210500 01010KT 6SM -RA BKN020
     FM211200 33012KT P6SM VCSH BKN030=

USA.gov is the U.S. government's official web portal to all federal, state and local government web resources and services.